createdAt,value
2018-02-25T00:00:13.108Z,56.23
2018-02-25T00:01:13.090Z,56.04
2018-02-25T00:02:13.081Z,56.32
2018-02-25T00:03:13.061Z,56.42
2018-02-25T00:04:13.020Z,56.51
2018-02-25T00:05:12.999Z,56.32
2018-02-25T00:06:12.980Z,57.27
2018-02-25T00:07:12.954Z,56.89
2018-02-25T00:08:12.949Z,56.89
2018-02-25T00:09:12.948Z,57.37
2018-02-25T00:10:12.887Z,57.08
2018-02-25T00:11:12.869Z,56.89
2018-02-25T00:12:12.849Z,56.86
2018-02-25T00:13:12.851Z,57.05
2018-02-25T00:14:12.819Z,57.08
2018-02-25T00:15:12.787Z,57.24
2018-02-25T00:16:12.756Z,57.34
2018-02-25T00:17:12.739Z,57.53
2018-02-25T00:18:12.727Z,57.24
2018-02-25T00:19:12.713Z,57.05
2018-02-25T00:20:12.691Z,57.15
2018-02-25T00:21:12.651Z,57.53
2018-02-25T00:22:12.634Z,57.62
2018-02-25T00:23:12.605Z,57.71
2018-02-25T00:24:12.602Z,57.71
2018-02-25T00:25:12.586Z,57.90
2018-02-25T00:26:12.542Z,58.28
2018-02-25T00:27:12.528Z,58.37
2018-02-25T00:28:12.500Z,57.81
2018-02-25T00:29:12.480Z,57.81
2018-02-25T00:30:12.458Z,58.18
2018-02-25T00:31:12.449Z,58.28
2018-02-25T00:32:12.459Z,58.28
2018-02-25T00:33:12.390Z,58.37
2018-02-25T00:34:12.374Z,58.37
2018-02-25T00:35:12.348Z,58.18
2018-02-25T00:36:12.850Z,58.18
2018-02-25T00:37:12.306Z,58.09
2018-02-25T00:38:12.279Z,58.09
2018-02-25T00:39:12.256Z,58.18
2018-02-25T00:40:12.243Z,58.09
2018-02-25T00:41:12.210Z,58.18
2018-02-25T00:42:12.211Z,58.09
2018-02-25T00:43:12.186Z,58.18
2018-02-25T00:44:12.147Z,58.18
2018-02-25T00:45:12.130Z,58.18
2018-02-25T00:46:12.105Z,58.37
2018-02-25T00:47:12.147Z,58.09
2018-02-25T00:48:12.064Z,58.47
2018-02-25T00:49:12.045Z,58.18
2018-02-25T00:50:12.022Z,58.09
2018-02-25T00:51:11.997Z,58.56
2018-02-25T00:52:11.998Z,58.56
2018-02-25T00:53:11.973Z,58.65
2018-02-25T00:54:11.936Z,58.94
2018-02-25T00:55:11.909Z,58.65
2018-02-25T00:56:11.906Z,58.84
2018-02-25T00:57:11.870Z,59.03
2018-02-25T00:58:11.859Z,58.94
2018-02-25T00:59:11.824Z,58.28
2018-02-25T01:00:11.805Z,58.56
2018-02-25T01:01:11.782Z,58.75
2018-02-25T01:02:11.772Z,58.65
2018-02-25T01:03:11.747Z,58.56
2018-02-25T01:04:11.716Z,58.18
2018-02-25T01:05:11.693Z,58.18
2018-02-25T01:06:11.670Z,58.28
2018-02-25T01:07:11.663Z,58.37
2018-02-25T01:08:11.657Z,58.37
2018-02-25T01:09:11.598Z,58.28
2018-02-25T01:10:11.598Z,58.00
2018-02-25T01:11:11.558Z,58.09
2018-02-25T01:12:11.544Z,57.90
2018-02-25T01:13:11.515Z,58.47
2018-02-25T01:14:11.532Z,58.09
2018-02-25T01:15:11.483Z,58.28
2018-02-25T01:16:11.452Z,58.47
2018-02-25T01:17:11.435Z,58.47
2018-02-25T01:18:11.414Z,57.71
2018-02-25T01:19:11.403Z,57.43
2018-02-25T01:20:11.363Z,57.62
2018-02-25T01:21:11.350Z,57.62
2018-02-25T01:22:11.315Z,57.71
2018-02-25T01:23:11.821Z,58.09
2018-02-25T01:24:11.293Z,58.47
2018-02-25T01:25:11.261Z,58.09
2018-02-25T01:26:11.230Z,58.75
2018-02-25T01:27:11.210Z,59.03
2018-02-25T01:28:11.183Z,58.94
2018-02-25T01:29:11.164Z,59.22
2018-02-25T01:30:11.160Z,59.13
2018-02-25T01:31:11.118Z,58.94
2018-02-25T01:32:11.110Z,58.37
2018-02-25T01:33:11.076Z,59.03
2018-02-25T01:34:11.067Z,58.65
2018-02-25T01:35:11.049Z,59.03
2018-02-25T01:36:11.012Z,58.65
2018-02-25T01:37:10.987Z,59.13
2018-02-25T01:38:10.980Z,59.32
2018-02-25T01:39:10.943Z,59.32
2018-02-25T01:40:10.920Z,59.32
2018-02-25T01:41:10.898Z,59.22
2018-02-25T01:42:10.914Z,59.51
2018-02-25T01:43:10.853Z,59.32
2018-02-25T01:44:11.388Z,59.13
2018-02-25T01:45:10.813Z,59.51
2018-02-25T01:46:10.797Z,59.51
2018-02-25T01:47:10.767Z,59.03
2018-02-25T01:48:10.761Z,59.51
2018-02-25T01:49:10.716Z,59.41
2018-02-25T01:50:10.704Z,58.94
2018-02-25T01:51:10.675Z,59.13
2018-02-25T01:52:10.657Z,59.79
2018-02-25T01:53:10.636Z,59.70
2018-02-25T01:54:11.357Z,59.98
2018-02-25T01:55:10.590Z,60.17
2018-02-25T01:56:10.569Z,59.38
2018-02-25T01:57:10.566Z,59.86
2018-02-25T01:58:10.526Z,59.76
2018-02-25T01:59:10.501Z,60.61
2018-02-25T02:00:10.481Z,60.71
2018-02-25T02:01:10.476Z,60.33
2018-02-25T02:02:10.437Z,60.71
2018-02-25T02:03:10.411Z,60.24
2018-02-25T02:04:10.389Z,60.33
2018-02-25T02:05:10.374Z,60.14
2018-02-25T02:06:10.363Z,60.61
2018-02-25T02:07:10.349Z,60.05
2018-02-25T02:08:10.320Z,59.70
2018-02-25T02:09:10.283Z,59.13
2018-02-25T02:10:10.262Z,59.13
2018-02-25T02:11:10.233Z,58.18
2018-02-25T02:12:10.214Z,58.94
2018-02-25T02:13:10.192Z,59.51
2018-02-25T02:14:10.188Z,59.13
2018-02-25T02:15:10.158Z,59.13
2018-02-25T02:16:10.127Z,58.75
2018-02-25T02:17:10.102Z,58.94
2018-02-25T02:18:10.078Z,58.37
2018-02-25T02:19:10.057Z,58.82
2018-02-25T02:20:10.055Z,59.03
2018-02-25T02:21:10.015Z,59.10
2018-02-25T02:22:09.994Z,59.29
2018-02-25T02:23:09.966Z,59.57
2018-02-25T02:24:09.948Z,59.38
2018-02-25T02:25:10.821Z,59.76
2018-02-25T02:26:09.903Z,60.05
2018-02-25T02:27:09.886Z,59.86
2018-02-25T02:28:09.863Z,59.95
2018-02-25T02:29:09.838Z,60.05
2018-02-25T02:30:09.833Z,60.24
2018-02-25T02:31:09.794Z,60.33
2018-02-25T02:32:09.781Z,60.42
2018-02-25T02:33:09.755Z,60.33
2018-02-25T02:34:09.730Z,60.24
2018-02-25T02:35:09.697Z,60.42
2018-02-25T02:36:09.690Z,60.33
2018-02-25T02:37:09.657Z,60.33
2018-02-25T02:38:09.636Z,60.24
2018-02-25T02:39:09.607Z,60.24
2018-02-25T02:40:09.606Z,60.42
2018-02-25T02:41:09.599Z,60.61
2018-02-25T02:42:09.552Z,61.18
2018-02-25T02:43:09.524Z,60.61
2018-02-25T02:44:09.502Z,60.42
2018-02-25T02:45:09.480Z,61.36
2018-02-25T02:46:09.470Z,61.18
2018-02-25T02:47:09.444Z,60.61
2018-02-25T02:48:09.419Z,61.08
2018-02-25T02:49:09.388Z,61.18
2018-02-25T02:50:09.368Z,60.80
2018-02-25T02:51:09.349Z,60.99
2018-02-25T02:52:09.339Z,61.27
2018-02-25T02:53:09.302Z,61.27
2018-02-25T02:54:09.279Z,61.27
2018-02-25T02:55:09.265Z,61.46
2018-02-25T02:56:09.238Z,61.65
2018-02-25T02:57:09.228Z,61.36
2018-02-25T02:58:09.203Z,60.99
2018-02-25T02:59:09.172Z,61.27
2018-02-25T03:00:09.145Z,61.18
2018-02-25T03:01:09.122Z,60.99
2018-02-25T03:02:09.115Z,61.36
2018-02-25T03:03:09.072Z,61.46
2018-02-25T03:04:09.053Z,61.74
2018-02-25T03:05:09.039Z,61.55
2018-02-25T03:06:09.012Z,61.46
2018-02-25T03:07:09.006Z,61.18
2018-02-25T03:08:08.981Z,61.55
2018-02-25T03:09:08.944Z,61.46
2018-02-25T03:10:08.924Z,61.46
2018-02-25T03:11:08.907Z,61.36
2018-02-25T03:12:08.877Z,61.18
2018-02-25T03:13:08.849Z,60.99
2018-02-25T03:14:08.848Z,60.89
2018-02-25T03:15:08.809Z,61.55
2018-02-25T03:16:08.803Z,61.36
2018-02-25T03:17:08.769Z,60.89
2018-02-25T03:18:08.743Z,61.36
2018-02-25T03:19:08.764Z,61.74
2018-02-25T03:20:08.713Z,61.46
2018-02-25T03:21:08.672Z,61.55
2018-02-25T03:22:08.650Z,61.65
2018-02-25T03:23:08.627Z,61.27
2018-02-25T03:24:08.629Z,61.36
2018-02-25T03:25:08.600Z,61.46
2018-02-25T03:26:08.563Z,61.27
2018-02-25T03:27:08.541Z,61.18
2018-02-25T03:28:08.522Z,61.36
2018-02-25T03:29:08.489Z,61.18
2018-02-25T03:30:08.492Z,61.27
2018-02-25T03:31:08.480Z,61.65
2018-02-25T03:32:08.427Z,61.36
2018-02-25T03:33:08.410Z,61.84
2018-02-25T03:34:08.379Z,61.27
2018-02-25T03:35:08.353Z,61.08
2018-02-25T03:36:08.352Z,60.99
2018-02-25T03:37:08.848Z,60.89
2018-02-25T03:38:08.292Z,60.33
2018-02-25T03:39:08.270Z,60.33
2018-02-25T03:40:08.245Z,60.52
2018-02-25T03:41:08.241Z,60.80
2018-02-25T03:42:08.203Z,61.27
2018-02-25T03:43:08.179Z,61.46
2018-02-25T03:44:08.157Z,61.46
2018-02-25T03:45:08.138Z,61.18
2018-02-25T03:46:08.111Z,61.36
2018-02-25T03:47:08.107Z,62.12
2018-02-25T03:48:08.068Z,62.02
2018-02-25T03:49:08.038Z,62.12
2018-02-25T03:50:08.020Z,62.02
2018-02-25T03:51:07.998Z,61.93
2018-02-25T03:52:07.970Z,61.74
2018-02-25T03:53:07.970Z,61.74
2018-02-25T03:54:07.951Z,61.93
2018-02-25T03:55:07.906Z,62.21
2018-02-25T03:56:07.880Z,62.02
2018-02-25T03:57:07.916Z,61.46
2018-02-25T03:58:07.838Z,61.27
2018-02-25T03:59:07.811Z,61.46
2018-02-25T04:00:07.795Z,61.46
2018-02-25T04:01:07.790Z,61.55
2018-02-25T04:02:07.752Z,61.46
2018-02-25T04:03:07.730Z,61.18
2018-02-25T04:04:07.702Z,61.65
2018-02-25T04:05:07.736Z,61.46
2018-02-25T04:06:07.662Z,61.46
2018-02-25T04:07:07.648Z,61.36
2018-02-25T04:08:07.625Z,61.46
2018-02-25T04:09:07.589Z,61.55
2018-02-25T04:10:07.564Z,61.84
2018-02-25T04:11:07.541Z,61.36
2018-02-25T04:12:07.520Z,61.93
2018-02-25T04:13:07.499Z,61.74
2018-02-25T04:14:07.493Z,62.02
2018-02-25T04:15:07.466Z,62.12
2018-02-25T04:16:07.432Z,62.02
2018-02-25T04:17:07.407Z,62.40
2018-02-25T04:18:07.386Z,62.97
2018-02-25T04:19:07.366Z,62.97
2018-02-25T04:20:07.354Z,62.50
2018-02-25T04:21:07.318Z,62.69
2018-02-25T04:22:07.306Z,62.69
2018-02-25T04:23:07.268Z,62.78
2018-02-25T04:24:07.249Z,62.88
2018-02-25T04:25:08.821Z,62.88
2018-02-25T04:26:07.204Z,62.78
2018-02-25T04:27:07.184Z,63.07
2018-02-25T04:28:07.172Z,63.16
2018-02-25T04:29:07.139Z,63.16
2018-02-25T04:30:07.110Z,63.16
2018-02-25T04:31:07.107Z,63.26
2018-02-25T04:32:07.076Z,63.16
2018-02-25T04:33:07.070Z,63.45
2018-02-25T04:34:07.024Z,63.63
2018-02-25T04:35:06.994Z,63.73
2018-02-25T04:36:06.976Z,63.54
2018-02-25T04:37:06.951Z,63.73
2018-02-25T04:38:06.946Z,63.54
2018-02-25T04:39:06.934Z,63.45
2018-02-25T04:40:06.890Z,63.73
2018-02-25T04:41:06.864Z,63.82
2018-02-25T04:42:06.853Z,63.73
2018-02-25T04:43:06.830Z,63.54
2018-02-25T04:44:06.809Z,63.73
2018-02-25T04:45:06.769Z,63.73
2018-02-25T04:46:06.750Z,63.63
2018-02-25T04:47:06.732Z,63.73
2018-02-25T04:48:06.697Z,63.63
2018-02-25T04:49:06.694Z,63.35
2018-02-25T04:50:06.665Z,63.26
2018-02-25T04:51:06.634Z,63.63
2018-02-25T04:52:07.354Z,63.73
2018-02-25T04:53:06.589Z,63.63
2018-02-25T04:54:06.583Z,63.73
2018-02-25T04:55:06.541Z,64.11
2018-02-25T04:56:06.522Z,64.20
2018-02-25T04:57:06.526Z,64.11
2018-02-25T04:58:06.468Z,63.45
2018-02-25T04:59:06.478Z,63.54
2018-02-25T05:00:06.430Z,63.82
2018-02-25T05:01:06.463Z,64.17
2018-02-25T05:02:06.383Z,63.63
2018-02-25T05:03:06.376Z,63.45
2018-02-25T05:04:06.341Z,63.26
2018-02-25T05:05:06.318Z,63.63
2018-02-25T05:06:06.289Z,63.54
2018-02-25T05:07:06.276Z,63.54
2018-02-25T05:08:06.264Z,63.54
2018-02-25T05:09:06.230Z,63.82
2018-02-25T05:10:06.200Z,63.45
2018-02-25T05:11:06.181Z,63.82
2018-02-25T05:12:06.156Z,63.07
2018-02-25T05:13:06.134Z,62.97
2018-02-25T05:14:06.121Z,63.16
2018-02-25T05:15:06.085Z,63.16
2018-02-25T05:16:06.063Z,63.13
2018-02-25T05:17:06.041Z,63.32
2018-02-25T05:18:06.019Z,63.73
2018-02-25T05:19:06.008Z,63.51
2018-02-25T05:20:05.993Z,63.79
2018-02-25T05:21:05.950Z,63.35
2018-02-25T05:22:05.922Z,62.84
2018-02-25T05:23:05.900Z,63.45
2018-02-25T05:24:05.875Z,63.54
2018-02-25T05:25:05.857Z,62.75
2018-02-25T05:26:05.846Z,63.07
2018-02-25T05:27:05.813Z,62.78
2018-02-25T05:28:05.794Z,62.40
2018-02-25T05:29:05.764Z,62.59
2018-02-25T05:30:05.761Z,62.59
2018-02-25T05:31:05.716Z,62.47
2018-02-25T05:32:05.694Z,62.69
2018-02-25T05:33:05.671Z,62.56
2018-02-25T05:34:05.650Z,62.50
2018-02-25T05:35:05.623Z,62.69
2018-02-25T05:36:05.618Z,62.40
2018-02-25T05:37:05.578Z,62.12
2018-02-25T05:38:05.555Z,62.18
2018-02-25T05:39:26.546Z,62.59
2018-02-25T05:40:05.511Z,61.71
2018-02-25T05:41:05.504Z,62.21
2018-02-25T05:42:05.460Z,61.55
2018-02-25T05:43:05.438Z,61.46
2018-02-25T05:44:05.420Z,60.68
2018-02-25T05:45:05.407Z,60.68
2018-02-25T05:46:05.377Z,60.89
2018-02-25T05:47:05.348Z,60.49
2018-02-25T05:48:05.327Z,60.24
2018-02-25T05:49:05.302Z,59.86
2018-02-25T05:50:05.289Z,59.57
2018-02-25T05:51:05.273Z,59.38
2018-02-25T05:52:05.234Z,59.10
2018-02-25T05:53:05.209Z,59.29
2018-02-25T05:54:05.185Z,59.29
2018-02-25T05:55:05.159Z,59.00
2018-02-25T05:56:05.136Z,59.10
2018-02-25T05:57:05.134Z,59.48
2018-02-25T05:58:05.095Z,58.72
2018-02-25T05:59:05.075Z,58.72
2018-02-25T06:00:05.070Z,58.72
2018-02-25T06:01:05.029Z,58.34
2018-02-25T06:02:04.997Z,58.22
2018-02-25T06:03:04.977Z,58.34
2018-02-25T06:04:04.951Z,58.69
2018-02-25T06:05:04.929Z,58.50
2018-02-25T06:06:04.924Z,58.15
2018-02-25T06:07:04.897Z,58.44
2018-02-25T06:08:04.861Z,58.72
2018-02-25T06:09:04.836Z,58.69
2018-02-25T06:10:04.817Z,58.22
2018-02-25T06:11:05.357Z,58.03
2018-02-25T06:12:04.786Z,58.22
2018-02-25T06:13:04.747Z,58.03
2018-02-25T06:14:04.725Z,58.03
2018-02-25T06:15:04.761Z,58.41
2018-02-25T06:16:04.689Z,57.59
2018-02-25T06:17:04.670Z,57.46
2018-02-25T06:18:04.649Z,57.94
2018-02-25T06:19:04.699Z,58.03
2018-02-25T06:20:04.580Z,58.03
2018-02-25T06:21:04.562Z,57.65
2018-02-25T06:22:04.536Z,57.75
2018-02-25T06:23:04.584Z,57.46
2018-02-25T06:24:04.493Z,57.50
2018-02-25T06:25:04.478Z,57.97
2018-02-25T06:26:04.447Z,57.75
2018-02-25T06:27:04.441Z,57.59
2018-02-25T06:28:04.417Z,57.68
2018-02-25T06:29:04.376Z,58.03
2018-02-25T06:30:04.363Z,58.34
2018-02-25T06:31:04.328Z,57.68
2018-02-25T06:32:04.871Z,57.56
2018-02-25T06:33:15.718Z,58.31
2018-02-25T06:34:08.409Z,58.03
2018-02-25T06:35:07.773Z,57.75
2018-02-25T06:36:04.214Z,57.65
2018-02-25T06:37:05.815Z,57.65
2018-02-25T06:38:04.164Z,57.68
2018-02-25T06:39:05.818Z,58.31
2018-02-25T06:40:04.133Z,58.22
2018-02-25T06:41:04.097Z,58.06
2018-02-25T06:42:04.079Z,58.41
2018-02-25T06:43:04.050Z,58.34
2018-02-25T06:44:04.047Z,58.06
2018-02-25T06:45:04.027Z,58.25
2018-02-25T06:46:03.984Z,57.75
2018-02-25T06:47:03.961Z,57.75
2018-02-25T06:48:03.935Z,58.03
2018-02-25T06:49:03.913Z,58.34
2018-02-25T06:50:03.907Z,58.44
2018-02-25T06:51:03.869Z,58.60
2018-02-25T06:52:03.838Z,58.50
2018-02-25T06:53:03.819Z,58.22
2018-02-25T06:54:03.806Z,58.03
2018-02-25T06:55:03.774Z,58.22
2018-02-25T06:56:03.773Z,58.44
2018-02-25T06:57:03.728Z,58.12
2018-02-25T06:58:03.704Z,58.03
2018-02-25T06:59:03.674Z,58.22
2018-02-25T07:00:03.655Z,58.31
2018-02-25T07:01:03.653Z,58.69
2018-02-25T07:02:04.320Z,58.69
2018-02-25T07:03:03.590Z,58.53
2018-02-25T07:04:03.565Z,58.63
2018-02-25T07:05:03.546Z,58.25
2018-02-25T07:06:03.519Z,58.53
2018-02-25T07:07:03.512Z,58.63
2018-02-25T07:08:03.473Z,58.91
2018-02-25T07:09:03.444Z,59.00
2018-02-25T07:10:03.429Z,58.15
2018-02-25T07:11:03.404Z,58.72
2018-02-25T07:12:03.392Z,58.53
2018-02-25T07:13:03.376Z,58.34
2018-02-25T07:14:03.336Z,58.53
2018-02-25T07:15:03.369Z,58.25
2018-02-25T07:16:03.301Z,58.91
2018-02-25T07:17:03.263Z,59.29
2018-02-25T07:18:03.244Z,59.10
2018-02-25T07:19:03.234Z,58.44
2018-02-25T07:20:03.196Z,58.82
2018-02-25T07:21:03.176Z,58.72
2018-02-25T07:22:03.161Z,58.72
2018-02-25T07:23:03.124Z,58.72
2018-02-25T07:24:03.875Z,58.34
2018-02-25T07:25:03.081Z,58.72
2018-02-25T07:26:03.061Z,58.53
2018-02-25T07:27:03.040Z,58.72
2018-02-25T07:28:03.029Z,58.34
2018-02-25T07:29:02.995Z,58.15
2018-02-25T07:30:02.966Z,58.34
2018-02-25T07:31:02.945Z,57.50
2018-02-25T07:32:02.923Z,57.50
2018-02-25T07:33:02.916Z,57.59
2018-02-25T07:34:02.902Z,57.68
2018-02-25T07:35:06.318Z,58.25
2018-02-25T07:36:02.829Z,58.06
2018-02-25T07:37:02.813Z,58.06
2018-02-25T07:38:02.784Z,58.25
2018-02-25T07:39:02.758Z,58.25
2018-02-25T07:40:02.754Z,58.25
2018-02-25T07:41:02.714Z,58.44
2018-02-25T07:42:02.692Z,57.50
2018-02-25T07:43:02.668Z,57.59
2018-02-25T07:44:02.650Z,57.87
2018-02-25T07:45:02.619Z,57.97
2018-02-25T07:46:02.612Z,57.78
2018-02-25T07:47:03.357Z,58.34
2018-02-25T07:48:02.553Z,57.97
2018-02-25T07:49:02.528Z,58.82
2018-02-25T07:50:02.512Z,59.76
2018-02-25T07:51:02.498Z,59.86
2018-02-25T07:52:02.458Z,59.10
2018-02-25T07:53:02.445Z,60.05
2018-02-25T07:54:02.416Z,59.29
2018-02-25T07:55:02.394Z,58.44
2018-02-25T07:56:02.382Z,58.34
2018-02-25T07:57:02.348Z,58.15
2018-02-25T07:58:02.325Z,57.68
2018-02-25T07:59:02.302Z,57.21
2018-02-25T08:00:02.273Z,57.03
2018-02-25T08:01:02.273Z,57.21
2018-02-25T08:02:02.234Z,56.84
2018-02-25T08:03:02.222Z,57.03
2018-02-25T08:04:02.188Z,57.03
2018-02-25T08:05:02.165Z,57.12
2018-02-25T08:06:02.138Z,57.12
2018-02-25T08:07:02.132Z,57.03
2018-02-25T08:08:02.094Z,57.12
2018-02-25T08:09:02.067Z,56.36
2018-02-25T08:10:02.049Z,56.46
2018-02-25T08:11:02.043Z,56.84
2018-02-25T08:12:02.005Z,57.03
2018-02-25T08:13:01.990Z,55.98
2018-02-25T08:14:01.972Z,55.42
2018-02-25T08:15:01.930Z,56.08
2018-02-25T08:16:01.912Z,55.61
2018-02-25T08:17:01.888Z,55.89
2018-02-25T08:18:01.873Z,56.08
2018-02-25T08:19:01.857Z,55.89
2018-02-25T08:20:01.824Z,54.94
2018-02-25T08:21:01.798Z,55.42
2018-02-25T08:22:02.390Z,55.89
2018-02-25T08:23:01.756Z,55.89
2018-02-25T08:24:01.738Z,55.98
2018-02-25T08:25:01.705Z,55.51
2018-02-25T08:26:01.693Z,55.16
2018-02-25T08:27:01.660Z,55.16
2018-02-25T08:28:01.655Z,55.32
2018-02-25T08:29:01.608Z,54.50
2018-02-25T08:30:01.591Z,54.22
2018-02-25T08:31:01.577Z,53.72
2018-02-25T08:32:01.542Z,53.15
2018-02-25T08:33:01.534Z,53.15
2018-02-25T08:34:01.503Z,52.78
2018-02-25T08:35:01.480Z,52.96
2018-02-25T08:36:05.817Z,53.15
2018-02-25T08:37:01.457Z,53.27
2018-02-25T08:38:01.435Z,53.08
2018-02-25T08:39:01.385Z,52.49
2018-02-25T08:40:01.365Z,55.92
2018-02-25T08:41:01.338Z,54.41
2018-02-25T08:42:01.318Z,53.94
2018-02-25T08:43:01.308Z,53.27
2018-02-25T08:44:01.283Z,53.56
2018-02-25T08:45:01.250Z,52.80
2018-02-25T08:46:01.224Z,53.27
2018-02-25T08:47:01.899Z,53.27
2018-02-25T08:48:01.183Z,52.70
2018-02-25T08:49:01.183Z,52.61
2018-02-25T08:50:01.156Z,52.61
2018-02-25T08:51:01.112Z,51.95
2018-02-25T08:52:01.088Z,51.67
2018-02-25T08:53:01.071Z,51.29
2018-02-25T08:54:01.067Z,51.48
2018-02-25T08:55:01.020Z,51.10
2018-02-25T08:56:01.000Z,50.82
2018-02-25T08:57:00.980Z,51.20
2018-02-25T08:58:00.960Z,50.82
2018-02-25T08:59:00.942Z,51.10
2018-02-25T09:00:01.850Z,50.91
2018-02-25T09:01:00.911Z,51.03
2018-02-25T09:02:00.895Z,50.56
2018-02-25T09:03:00.846Z,50.35
2018-02-25T09:04:00.821Z,50.16
2018-02-25T09:05:00.818Z,49.97
2018-02-25T09:06:00.785Z,49.68
2018-02-25T09:07:00.819Z,49.99
2018-02-25T09:08:00.733Z,49.78
2018-02-25T09:09:00.707Z,49.80
2018-02-25T09:10:00.685Z,49.71
2018-02-25T09:11:00.669Z,49.24
2018-02-25T09:12:00.663Z,49.71
2018-02-25T09:13:00.648Z,49.43
2018-02-25T09:14:00.600Z,49.52
2018-02-25T09:15:00.585Z,49.24
2018-02-25T09:16:00.555Z,49.33
2018-02-25T09:17:00.534Z,49.62
2018-02-25T09:18:02.318Z,49.71
2018-02-25T09:19:00.504Z,48.86
2018-02-25T09:20:00.464Z,48.76
2018-02-25T09:21:00.443Z,49.05
2018-02-25T09:22:00.416Z,48.95
2018-02-25T09:23:00.398Z,49.05
2018-02-25T09:24:00.393Z,48.76
2018-02-25T09:25:00.367Z,48.39
2018-02-25T09:26:00.337Z,48.48
2018-02-25T09:27:00.306Z,48.39
2018-02-25T09:28:00.291Z,48.86
2018-02-25T09:29:00.278Z,48.48
2018-02-25T09:30:00.241Z,48.29
2018-02-25T09:31:00.225Z,48.48
2018-02-25T09:32:00.212Z,48.39
2018-02-25T09:33:00.178Z,47.91
2018-02-25T09:34:00.171Z,47.44
2018-02-25T09:35:00.130Z,47.06
2018-02-25T09:36:00.118Z,47.16
2018-02-25T09:37:00.093Z,47.16
2018-02-25T09:38:00.069Z,47.25
2018-02-25T09:39:00.063Z,47.34
2018-02-25T09:40:00.044Z,46.88
2018-02-25T09:41:00.021Z,46.88
2018-02-25T09:41:59.984Z,47.16
2018-02-25T09:42:59.959Z,47.18
2018-02-25T09:43:59.936Z,46.61
2018-02-25T09:44:59.933Z,46.14
2018-02-25T09:45:59.909Z,45.86
2018-02-25T09:46:59.871Z,45.67
2018-02-25T09:47:59.856Z,45.76
2018-02-25T09:48:59.846Z,45.67
2018-02-25T09:49:59.805Z,45.76
2018-02-25T09:50:59.910Z,45.39
2018-02-25T09:51:59.763Z,45.20
2018-02-25T09:52:59.743Z,45.76
2018-02-25T09:53:59.737Z,46.52
2018-02-25T09:54:59.698Z,45.86
2018-02-25T09:55:59.676Z,45.48
2018-02-25T09:56:59.669Z,45.01
2018-02-25T09:57:59.634Z,46.14
2018-02-25T09:58:59.619Z,45.48
2018-02-25T09:59:59.613Z,45.29
2018-02-25T10:00:59.568Z,45.20
2018-02-25T10:01:59.546Z,44.63
2018-02-25T10:03:01.319Z,44.15
2018-02-25T10:03:59.508Z,45.67
2018-02-25T10:04:59.480Z,45.31
2018-02-25T10:06:01.319Z,44.09
2018-02-25T10:06:59.477Z,43.80
2018-02-25T10:07:59.459Z,43.02
2018-02-25T10:08:59.396Z,42.57
2018-02-25T10:09:59.377Z,42.57
2018-02-25T10:10:59.368Z,42.95
2018-02-25T10:12:00.318Z,42.47
2018-02-25T10:12:59.310Z,43.04
2018-02-25T10:13:59.288Z,42.47
2018-02-25T10:14:59.263Z,41.63
2018-02-25T10:15:59.244Z,41.53
2018-02-25T10:16:59.246Z,41.34
2018-02-25T10:17:59.204Z,41.25
2018-02-25T10:18:59.194Z,41.63
2018-02-25T10:19:59.161Z,41.08
2018-02-25T10:20:59.142Z,40.79
2018-02-25T10:21:59.133Z,40.41
2018-02-25T10:22:59.107Z,40.22
2018-02-25T10:23:59.070Z,39.65
2018-02-25T10:24:59.071Z,39.28
2018-02-25T10:25:59.032Z,38.81
2018-02-25T10:26:59.223Z,39.00
2018-02-25T10:27:58.993Z,39.28
2018-02-25T10:28:58.992Z,39.28
2018-02-25T10:29:58.954Z,39.65
2018-02-25T10:30:58.933Z,39.37
2018-02-25T10:31:58.934Z,39.18
2018-02-25T10:32:59.854Z,38.45
2018-02-25T10:33:58.879Z,38.35
2018-02-25T10:34:59.395Z,37.97
2018-02-25T10:35:58.843Z,37.14
2018-02-25T10:36:59.402Z,36.95
2018-02-25T10:37:58.807Z,36.76
2018-02-25T10:38:58.781Z,36.10
2018-02-25T10:39:58.756Z,35.91
2018-02-25T10:40:58.737Z,35.05
2018-02-25T10:41:58.721Z,34.69
2018-02-25T10:42:58.724Z,34.41
2018-02-25T10:43:58.692Z,33.48
2018-02-25T10:44:58.685Z,32.91
2018-02-25T10:45:58.646Z,31.96
2018-02-25T10:46:58.630Z,31.60
2018-02-25T10:47:58.615Z,31.31
2018-02-25T10:48:58.606Z,31.60
2018-02-25T10:49:58.578Z,31.12
2018-02-25T10:50:58.569Z,31.13
2018-02-25T10:51:58.542Z,30.85
2018-02-25T10:52:58.526Z,30.09
2018-02-25T10:53:58.530Z,29.73
2018-02-25T10:54:58.493Z,29.16
2018-02-25T10:55:58.479Z,29.16
2018-02-25T10:56:58.464Z,28.19
2018-02-25T10:57:58.451Z,27.91
2018-02-25T10:58:58.450Z,28.48
2018-02-25T10:59:58.457Z,29.03
2018-02-25T11:00:58.405Z,29.05
2018-02-25T11:01:58.387Z,28.48
2018-02-25T11:02:58.377Z,28.00
2018-02-25T11:03:58.376Z,27.81
2018-02-25T11:04:58.346Z,28.10
2018-02-25T11:05:58.826Z,28.10
2018-02-25T11:06:58.321Z,28.00
2018-02-25T11:07:58.315Z,28.00
2018-02-25T11:08:58.826Z,27.81
2018-02-25T11:09:58.283Z,27.83
2018-02-25T11:10:58.262Z,27.92
2018-02-25T11:11:58.270Z,27.91
2018-02-25T11:12:58.258Z,27.25
2018-02-25T11:13:58.231Z,27.34
2018-02-25T11:14:58.214Z,26.69
2018-02-25T11:15:58.222Z,26.50
2018-02-25T11:16:58.195Z,26.69
2018-02-25T11:17:58.175Z,26.40
2018-02-25T11:18:58.175Z,26.39
2018-02-25T11:19:58.153Z,26.39
2018-02-25T11:20:58.149Z,26.39
2018-02-25T11:21:58.130Z,26.77
2018-02-25T11:22:58.143Z,27.34
2018-02-25T11:23:58.123Z,27.15
2018-02-25T11:24:58.093Z,26.78
2018-02-25T11:25:58.080Z,26.78
2018-02-25T11:26:58.098Z,26.31
2018-02-25T11:27:58.057Z,25.64
2018-02-25T11:28:58.046Z,25.18
2018-02-25T11:29:58.044Z,25.26
2018-02-25T11:30:58.024Z,25.45
2018-02-25T11:31:58.006Z,25.26
2018-02-25T11:32:58.002Z,25.18
2018-02-25T11:33:57.981Z,25.07
2018-02-25T11:34:57.974Z,25.36
2018-02-25T11:35:57.988Z,25.36
2018-02-25T11:36:57.950Z,25.09
2018-02-25T11:37:57.937Z,24.52
2018-02-25T11:38:57.931Z,24.42
2018-02-25T11:39:57.921Z,24.61
2018-02-25T11:40:57.922Z,24.43
2018-02-25T11:41:58.872Z,24.33
2018-02-25T11:42:57.888Z,25.38
2018-02-25T11:43:57.870Z,25.57
2018-02-25T11:44:58.365Z,25.76
2018-02-25T11:45:57.846Z,25.67
2018-02-25T11:46:57.857Z,25.48
2018-02-25T11:47:57.829Z,25.29
2018-02-25T11:48:57.821Z,25.37
2018-02-25T11:49:57.802Z,24.52
2018-02-25T11:50:57.790Z,24.04
2018-02-25T11:51:57.803Z,24.23
2018-02-25T11:52:57.770Z,25.37
2018-02-25T11:53:57.768Z,25.65
2018-02-25T11:54:57.751Z,25.65
2018-02-25T11:55:57.741Z,25.37
2018-02-25T11:56:57.723Z,25.27
2018-02-25T11:57:57.735Z,25.67
2018-02-25T11:58:57.707Z,25.10
2018-02-25T11:59:57.696Z,25.20
2018-02-25T12:00:57.681Z,25.01
2018-02-25T12:01:57.678Z,25.09
2018-02-25T12:02:57.663Z,25.48
2018-02-25T12:03:57.675Z,25.76
2018-02-25T12:04:57.641Z,25.56
2018-02-25T12:05:57.652Z,26.13
2018-02-25T12:06:57.617Z,25.27
2018-02-25T12:07:57.607Z,25.75
2018-02-25T12:08:57.610Z,26.23
2018-02-25T12:09:57.583Z,26.61
2018-02-25T12:10:57.568Z,26.61
2018-02-25T12:11:57.562Z,26.70
2018-02-25T12:12:57.548Z,26.79
2018-02-25T12:13:57.540Z,26.79
2018-02-25T12:14:59.611Z,26.79
2018-02-25T12:15:57.511Z,26.32
2018-02-25T12:16:57.501Z,26.23
2018-02-25T12:17:57.496Z,26.72
2018-02-25T12:18:57.489Z,27.19
2018-02-25T12:19:57.464Z,26.53
2018-02-25T12:20:57.467Z,25.86
2018-02-25T12:21:57.447Z,25.10
2018-02-25T12:22:57.434Z,24.72
2018-02-25T12:23:57.426Z,24.53
2018-02-25T12:24:58.379Z,24.34
2018-02-25T12:25:57.402Z,24.23
2018-02-25T12:26:57.400Z,24.53
2018-02-25T12:27:57.886Z,24.53
2018-02-25T12:28:57.373Z,24.33
2018-02-25T12:29:57.355Z,24.13
2018-02-25T12:30:57.348Z,24.42
2018-02-25T12:31:57.353Z,24.23
2018-02-25T12:32:57.929Z,24.52
2018-02-25T12:33:57.319Z,24.99
2018-02-25T12:34:57.303Z,25.18
2018-02-25T12:35:57.282Z,25.56
2018-02-25T12:36:57.277Z,24.99
2018-02-25T12:37:57.280Z,25.09
2018-02-25T12:38:57.252Z,24.99
2018-02-25T12:39:57.239Z,24.80
2018-02-25T12:40:57.235Z,25.01
2018-02-25T12:41:57.236Z,24.91
2018-02-25T12:42:57.207Z,25.10
2018-02-25T12:43:57.203Z,25.01
2018-02-25T12:44:57.202Z,24.72
2018-02-25T12:45:57.181Z,24.90
2018-02-25T12:46:57.159Z,25.46
2018-02-25T12:47:57.148Z,25.75
2018-02-25T12:48:57.153Z,25.27
2018-02-25T12:49:57.146Z,25.10
2018-02-25T12:50:57.114Z,24.43
2018-02-25T12:51:57.106Z,24.62